Time;durP1;ratioP1;P1;durP2;ratioP2;P2;SDS_P1;SDS_P2;PMS_P1;PMS_P2;Temp;Humidity;BMP_temperature;BMP_pressure;BME280_temperature;BME280_humidity;BME280_pressure;Samples;Min_cycle;Max_cycle;Signal;HPM_P1;HPM_P2
2024/04/20 00:01:36;;;;;;;24.92;23.63;;;;;;;-143.39;100.00;64013.03;5380216;26;20242;-81
2024/04/20 00:04:02;;;;;;;26.25;24.70;;;;;;;-143.39;100.00;64013.03;5379442;26;20918;-80
2024/04/20 00:06:31;;;;;;;25.55;24.25;;;;;;;-143.39;100.00;64013.03;5382490;26;20023;-81
2024/04/20 00:09:05;;;;;;;27.70;26.20;;;;;;;-143.39;100.00;64013.03;5379487;26;20000;-81
2024/04/20 00:11:37;;;;;;;27.45;26.13;;;;;;;-143.39;100.00;64013.03;5379323;26;20015;-81
2024/04/20 00:14:08;;;;;;;26.02;24.63;;;;;;;-143.39;100.00;64013.03;5380118;26;20018;-81
2024/04/20 00:16:36;;;;;;;26.77;25.38;;;;;;;-143.39;100.00;64013.03;5379953;26;20441;-81
2024/04/20 00:19:05;;;;;;;28.08;26.48;;;;;;;-143.39;100.00;64013.03;5379934;26;20008;-81
2024/04/20 00:21:34;;;;;;;29.50;27.90;;;;;;;-143.39;100.00;64013.03;5379774;26;20447;-81
2024/04/20 00:24:03;;;;;;;30.90;29.20;;;;;;;-143.39;100.00;64013.03;5378882;26;20351;-81
2024/04/20 00:26:33;;;;;;;28.42;26.92;;;;;;;-143.39;100.00;64013.03;5380001;26;20014;-81
2024/04/20 00:29:05;;;;;;;31.73;29.95;;;;;;;-143.39;100.00;64013.03;5379836;26;20000;-81
2024/04/20 00:31:34;;;;;;;29.70;28.07;;;;;;;-143.39;100.00;64013.03;5380124;26;20019;-79
2024/04/20 00:34:02;;;;;;;26.38;25.00;;;;;;;-143.39;100.00;64013.03;5379362;26;20004;-79
2024/04/20 00:36:31;;;;;;;27.95;26.50;;;;;;;-143.39;100.00;64013.03;5379390;26;20001;-79
2024/04/20 00:39:00;;;;;;;29.98;27.58;;;;;;;-143.39;100.00;64013.03;5379051;26;20004;-79
2024/04/20 00:41:29;;;;;;;27.25;25.52;;;;;;;-143.39;100.00;64013.03;5379671;26;20004;-79
2024/04/20 00:43:59;;;;;;;29.73;28.13;;;;;;;-143.39;100.00;64013.03;5379609;26;20000;-81
2024/04/20 00:46:32;;;;;;;31.42;29.75;;;;;;;-143.39;100.00;64013.03;5378794;26;20000;-78
2024/04/20 00:49:01;;;;;;;28.50;26.42;;;;;;;-143.39;100.00;64013.03;5379719;26;20000;-82
2024/04/20 00:51:33;;;;;;;30.02;28.33;;;;;;;-143.39;100.00;64013.03;5379025;26;20790;-79
2024/04/20 00:54:09;;;;;;;29.17;27.67;;;;;;;-143.39;100.00;64013.03;5378911;26;20050;-79
2024/04/20 00:56:38;;;;;;;28.73;27.02;;;;;;;-143.39;100.00;64013.03;5373082;26;19996;-79
2024/04/20 00:59:10;;;;;;;27.40;25.80;;;;;;;-143.39;100.00;64013.03;5353265;26;20046;-79
2024/04/20 01:01:42;;;;;;;27.98;26.38;;;;;;;-143.39;100.00;64013.03;5343895;26;19997;-79
2024/04/20 01:04:11;;;;;;;26.17;24.77;;;;;;;-143.39;100.00;64013.03;5343907;26;20041;-79
2024/04/20 01:06:43;;;;;;;27.30;25.70;;;;;;;-143.39;100.00;64013.03;5366766;26;20014;-79
2024/04/20 01:09:12;;;;;;;25.75;24.25;;;;;;;-143.39;100.00;64013.03;5367203;26;20000;-78
2024/04/20 01:11:41;;;;;;;25.08;23.67;;;;;;;-143.39;100.00;64013.03;5376086;26;20895;-79
2024/04/20 01:14:10;;;;;;;28.38;26.77;;;;;;;-143.39;100.00;64013.03;5378948;26;20455;-79
2024/04/20 01:16:45;;;;;;;25.35;23.95;;;;;;;-143.39;100.00;64013.03;5378709;26;19996;-79
2024/04/20 01:19:21;;;;;;;27.95;26.25;;;;;;;-143.39;100.00;64013.03;5379576;26;19996;-79
2024/04/20 01:21:50;;;;;;;30.30;28.50;;;;;;;-143.39;100.00;64013.03;5379154;26;20019;-79
2024/04/20 01:24:25;;;;;;;26.67;25.17;;;;;;;-143.39;100.00;64013.03;5381975;26;20000;-79
2024/04/20 01:26:56;;;;;;;25.15;23.85;;;;;;;-143.39;100.00;64013.03;5381417;26;20044;-78
2024/04/20 01:29:25;;;;;;;23.57;22.37;;;;;;;-143.39;100.00;64013.03;5381856;26;20004;-79
2024/04/20 01:31:54;;;;;;;24.45;23.15;;;;;;;-143.39;100.00;64013.03;5381218;26;20340;-79
2024/04/20 01:34:25;;;;;;;25.73;24.33;;;;;;;-143.39;100.00;64013.03;5381472;26;20050;-79
2024/04/20 01:36:54;;;;;;;27.98;26.48;;;;;;;-143.39;100.00;64013.03;5380791;26;20004;-79
2024/04/20 01:39:23;;;;;;;27.02;25.52;;;;;;;-143.39;100.00;64013.03;5372135;26;20090;-78
2024/04/20 01:41:52;;;;;;;29.60;27.70;;;;;;;-143.39;100.00;64013.03;5356214;26;20107;-79
2024/04/20 01:44:23;;;;;;;35.10;33.30;;;;;;;-143.39;100.00;64013.03;5379002;26;20014;-80
2024/04/20 01:46:52;;;;;;;37.45;35.45;;;;;;;-143.39;100.00;64013.03;5379266;26;20004;-80
2024/04/20 01:49:21;;;;;;;36.90;34.80;;;;;;;-143.39;100.00;64013.03;5380061;26;20008;-79
2024/04/20 01:51:50;;;;;;;32.30;30.50;;;;;;;-143.39;100.00;64013.03;5380303;26;20000;-80
2024/04/20 01:54:19;;;;;;;31.83;30.02;;;;;;;-143.39;100.00;64013.03;5379678;26;20004;-80
2024/04/20 01:56:47;;;;;;;30.60;28.90;;;;;;;-143.39;100.00;64013.03;5371681;26;20004;-80
2024/04/20 01:59:19;;;;;;;31.58;29.67;;;;;;;-143.39;100.00;64013.03;5380384;26;20065;-79
2024/04/20 02:01:55;;;;;;;28.55;26.65;;;;;;;-143.39;100.00;64013.03;5379958;26;20010;-80
2024/04/20 02:04:24;;;;;;;29.35;27.30;;;;;;;-143.39;100.00;64013.03;5379766;26;20000;-80
2024/04/20 02:06:53;;;;;;;28.45;26.85;;;;;;;-143.39;100.00;64013.03;5380156;26;20004;-80
2024/04/20 02:09:23;;;;;;;29.35;27.65;;;;;;;-143.39;100.00;64013.03;5379415;26;19996;-81
2024/04/20 02:11:52;;;;;;;30.35;28.55;;;;;;;-143.39;100.00;64013.03;5379770;26;20070;-79
2024/04/20 02:14:20;;;;;;;34.40;32.30;;;;;;;-143.39;100.00;64013.03;5379450;26;20073;-80
2024/04/20 02:16:52;;;;;;;33.60;31.48;;;;;;;-143.39;100.00;64013.03;5380112;26;20001;-80
2024/04/20 02:19:22;;;;;;;34.70;32.67;;;;;;;-143.39;100.00;64013.03;5346444;26;20073;-80
2024/04/20 02:21:51;;;;;;;34.20;32.10;;;;;;;-143.39;100.00;64013.03;5365433;26;20045;-80
2024/04/20 02:24:20;;;;;;;32.25;30.35;;;;;;;-143.39;100.00;64013.03;5381549;26;20080;-80
2024/04/20 02:26:49;;;;;;;34.63;32.63;;;;;;;-143.39;100.00;64013.03;5381246;26;20014;-80
2024/04/20 02:29:17;;;;;;;31.92;30.02;;;;;;;-143.39;100.00;64013.03;5381101;26;20076;-80
2024/04/20 02:31:52;;;;;;;31.67;29.77;;;;;;;-143.39;100.00;64013.03;5381134;26;20049;-80
2024/04/20 02:34:22;;;;;;;32.78;30.77;;;;;;;-143.39;100.00;64013.03;5380112;26;20085;-80
2024/04/20 02:36:51;;;;;;;31.08;28.98;;;;;;;-143.39;100.00;64013.03;5380823;26;20048;-80
2024/04/20 02:39:21;;;;;;;30.35;28.45;;;;;;;-143.39;100.00;64013.03;5380914;26;20114;-80
2024/04/20 02:41:50;;;;;;;33.65;31.40;;;;;;;-143.39;100.00;64013.03;5380251;26;20000;-80
2024/04/20 02:44:19;;;;;;;35.90;33.70;;;;;;;-143.39;100.00;64013.03;5380341;26;20014;-80
2024/04/20 02:46:47;;;;;;;32.67;30.77;;;;;;;-143.39;100.00;64013.03;5380594;26;20381;-80
2024/04/20 02:49:19;;;;;;;32.10;30.10;;;;;;;-143.39;100.00;64013.03;5380870;26;20360;-80
2024/04/20 02:51:48;;;;;;;32.00;30.10;;;;;;;-143.39;100.00;64013.03;5381273;26;20000;-80
2024/04/20 02:54:40;;;;;;;37.78;35.67;;;;;;;-143.39;100.00;64013.03;5381544;26;20072;-80
2024/04/20 02:57:09;;;;;;;34.35;32.35;;;;;;;-143.39;100.00;64013.03;5375434;26;20019;-80
2024/04/20 02:59:38;;;;;;;31.52;29.63;;;;;;;-143.39;100.00;64013.03;5381785;26;20018;-80
2024/04/20 03:02:09;;;;;;;35.78;33.58;;;;;;;-143.39;100.00;64013.03;5381360;26;19996;-80
2024/04/20 03:04:44;;;;;;;32.42;30.52;;;;;;;-143.39;100.00;64013.03;5380791;26;20069;-80
2024/04/20 03:07:13;;;;;;;37.30;35.00;;;;;;;-143.39;100.00;64013.03;5379405;26;20018;-80
2024/04/20 03:09:42;;;;;;;37.60;35.38;;;;;;;-143.39;100.00;64013.03;5379763;26;20020;-79
2024/04/20 03:12:14;;;;;;;34.90;32.80;;;;;;;-143.39;100.00;64013.03;5380014;26;20115;-80
2024/04/20 03:14:43;;;;;;;34.20;31.90;;;;;;;-143.39;100.00;64013.03;5380665;26;20000;-80
2024/04/20 03:17:11;;;;;;;32.63;30.55;;;;;;;-143.39;100.00;64013.03;5379844;26;20004;-80
2024/04/20 03:19:43;;;;;;;32.70;30.58;;;;;;;-143.39;100.00;64013.03;5379952;26;20099;-80
2024/04/20 03:22:12;;;;;;;30.63;28.73;;;;;;;-143.39;100.00;64013.03;5379158;26;20001;-80
2024/04/20 03:24:41;;;;;;;26.10;24.50;;;;;;;-143.39;100.00;64013.03;5379297;26;19997;-79
2024/04/20 03:27:10;;;;;;;26.98;25.27;;;;;;;-143.39;100.00;64013.03;5380087;26;20015;-80
2024/04/20 03:29:43;;;;;;;28.38;26.58;;;;;;;-143.39;100.00;64013.03;5345983;26;20081;-80
2024/04/20 03:32:12;;;;;;;25.85;24.30;;;;;;;-143.39;100.00;64013.03;5345811;26;20001;-80
2024/04/20 03:34:44;;;;;;;25.25;23.75;;;;;;;-143.39;100.00;64013.03;5345416;26;20768;-81
2024/04/20 03:37:13;;;;;;;26.40;24.90;;;;;;;-143.39;100.00;64013.03;5345959;26;20001;-80
2024/04/20 03:39:42;;;;;;;25.85;24.35;;;;;;;-143.39;100.00;64013.03;5345673;26;20024;-81
2024/04/20 03:42:12;;;;;;;25.58;24.13;;;;;;;-143.39;100.00;64013.03;5352630;26;20448;-80
2024/04/20 03:44:41;;;;;;;23.70;22.40;;;;;;;-143.39;100.00;64013.03;5379313;26;20014;-81
2024/04/20 03:47:11;;;;;;;23.95;22.65;;;;;;;-143.39;100.00;64013.03;5381120;26;20012;-81
2024/04/20 03:49:40;;;;;;;25.40;24.10;;;;;;;-143.39;100.00;64013.03;5380316;26;20317;-81
2024/04/20 03:52:12;;;;;;;24.75;23.45;;;;;;;-143.39;100.00;64013.03;5380737;26;20161;-81
2024/04/20 03:54:40;;;;;;;24.13;22.83;;;;;;;-143.39;100.00;64013.03;5381133;26;20331;-81
2024/04/20 03:57:12;;;;;;;23.88;22.25;;;;;;;-143.39;100.00;64013.03;5375223;26;20004;-81
2024/04/20 03:59:55;;;;;;;23.88;22.48;;;;;;;-143.39;100.00;64013.03;5380172;26;20004;-81
2024/04/20 04:02:26;;;;;;;24.95;22.77;;;;;;;-143.39;100.00;64013.03;5380384;26;20000;-81
2024/04/20 04:04:55;;;;;;;23.20;21.70;;;;;;;-143.39;100.00;64013.03;5379487;26;20004;-81
2024/04/20 04:07:27;;;;;;;22.48;21.27;;;;;;;-143.39;100.00;64013.03;5379613;26;20073;-81
2024/04/20 04:09:56;;;;;;;24.88;23.58;;;;;;;-143.39;100.00;64013.03;5378617;26;20456;-80
2024/04/20 04:12:25;;;;;;;23.70;22.38;;;;;;;-143.39;100.00;64013.03;5380572;26;20102;-81
2024/04/20 04:14:53;;;;;;;24.75;23.35;;;;;;;-143.39;100.00;64013.03;5380595;26;20032;-80
2024/04/20 04:17:22;;;;;;;23.65;22.35;;;;;;;-143.39;100.00;64013.03;5380777;26;20762;-81
2024/04/20 04:19:51;;;;;;;25.35;23.85;;;;;;;-143.39;100.00;64013.03;5380242;26;20454;-81
2024/04/20 04:22:20;;;;;;;25.40;23.95;;;;;;;-143.39;100.00;64013.03;5380797;26;20050;-80
2024/04/20 04:24:51;;;;;;;26.33;24.92;;;;;;;-143.39;100.00;64013.03;5378436;26;20409;-81
2024/04/20 04:27:20;;;;;;;25.30;24.00;;;;;;;-143.39;100.00;64013.03;5345863;26;19997;-81
2024/04/20 04:29:51;;;;;;;25.88;24.38;;;;;;;-143.39;100.00;64013.03;5369537;26;20015;-81
2024/04/20 04:32:20;;;;;;;27.92;26.23;;;;;;;-143.39;100.00;64013.03;5345497;26;20448;-80
2024/04/20 04:34:50;;;;;;;32.67;30.45;;;;;;;-143.39;100.00;64013.03;5345877;26;20081;-81
2024/04/20 04:37:29;;;;;;;30.67;28.90;;;;;;;-143.39;100.00;64013.03;5345469;26;20019;-81
2024/04/20 04:40:01;;;;;;;33.45;31.25;;;;;;;-143.39;100.00;64013.03;5361730;26;20004;-81
2024/04/20 04:42:30;;;;;;;29.10;27.40;;;;;;;-143.39;100.00;64013.03;5380250;26;20084;-81
2024/04/20 04:44:59;;;;;;;28.98;27.13;;;;;;;-143.39;100.00;64013.03;5379813;26;20340;-81
2024/04/20 04:47:30;;;;;;;29.05;27.15;;;;;;;-143.39;100.00;64013.03;5380013;26;20099;-80
2024/04/20 04:49:59;;;;;;;31.92;30.13;;;;;;;-143.39;100.00;64013.03;5378203;26;20906;-80
2024/04/20 04:52:28;;;;;;;35.70;33.30;;;;;;;-143.39;100.00;64013.03;5377929;26;20815;-81
2024/04/20 04:54:56;;;;;;;33.45;31.48;;;;;;;-143.39;100.00;64013.03;5377765;26;20012;-80
2024/04/20 04:57:28;;;;;;;33.13;31.17;;;;;;;-143.39;100.00;64013.03;5369243;26;20767;-80
2024/04/20 04:59:57;;;;;;;35.15;33.10;;;;;;;-143.39;100.00;64013.03;5378168;26;20069;-80
2024/04/20 05:02:28;;;;;;;31.35;29.65;;;;;;;-143.39;100.00;64013.03;5377971;26;20546;-80
2024/04/20 05:04:56;;;;;;;29.15;27.35;;;;;;;-143.39;100.00;64013.03;5378272;26;20432;-81
2024/04/20 05:07:25;;;;;;;26.48;24.77;;;;;;;-143.39;100.00;64013.03;5379047;26;20004;-80
2024/04/20 05:09:54;;;;;;;25.38;23.77;;;;;;;-143.39;100.00;64013.03;5379015;26;20106;-81
2024/04/20 05:12:23;;;;;;;31.77;29.88;;;;;;;-143.39;100.00;64013.03;5380022;26;20073;-81
2024/04/20 05:14:54;;;;;;;30.02;28.23;;;;;;;-143.39;100.00;64013.03;5380114;26;20002;-80
2024/04/20 05:17:23;;;;;;;28.50;26.38;;;;;;;-143.39;100.00;64013.03;5381066;26;20028;-81
2024/04/20 05:19:52;;;;;;;30.85;28.90;;;;;;;-143.39;100.00;64013.03;5381010;26;20005;-81
2024/04/20 05:22:22;;;;;;;31.52;29.27;;;;;;;-143.39;100.00;64013.03;5380261;26;20016;-81
2024/04/20 05:24:51;;;;;;;29.00;27.10;;;;;;;-143.39;100.00;64013.03;5379605;26;20015;-81
2024/04/20 05:27:24;;;;;;;28.60;26.60;;;;;;;-143.39;100.00;64013.03;5379700;26;20567;-81
2024/04/20 05:29:55;;;;;;;33.45;31.35;;;;;;;-143.39;100.00;64013.03;5377720;26;20024;-80
2024/04/20 05:32:30;;;;;;;28.15;26.25;;;;;;;-143.39;100.00;64013.03;5379641;26;20077;-81
2024/04/20 05:35:04;;;;;;;28.02;26.13;;;;;;;-143.39;100.00;64013.03;5379306;26;20004;-81
2024/04/20 05:37:33;;;;;;;30.25;28.15;;;;;;;-143.39;100.00;64013.03;5379361;26;20019;-81
2024/04/20 05:40:02;;;;;;;32.78;30.60;;;;;;;-143.39;100.00;64013.03;5378853;26;20496;-81
2024/04/20 05:42:30;;;;;;;29.85;27.75;;;;;;;-143.39;100.00;64013.03;5377829;26;20000;-81
2024/04/20 05:45:02;;;;;;;31.60;29.20;;;;;;;-143.39;100.00;64013.03;5376747;26;20000;-80
2024/04/20 05:47:31;;;;;;;30.90;28.70;;;;;;;-143.39;100.00;64013.03;5376674;26;20000;-81
2024/04/20 05:50:00;;;;;;;28.83;26.70;;;;;;;-143.39;100.00;64013.03;5344722;26;20617;-80
2024/04/20 05:52:29;;;;;;;29.58;27.27;;;;;;;-143.39;100.00;64013.03;5377093;26;20044;-81
2024/04/20 05:54:58;;;;;;;32.65;30.35;;;;;;;-143.39;100.00;64013.03;5376467;26;20044;-80
2024/04/20 05:57:26;;;;;;;33.17;30.88;;;;;;;-143.39;100.00;64013.03;5369869;26;20008;-81
2024/04/20 05:59:56;;;;;;;29.38;27.02;;;;;;;-143.39;100.00;64013.03;5378142;26;20472;-81
2024/04/20 06:02:28;;;;;;;32.53;29.63;;;;;;;-143.39;100.00;64013.03;5377972;26;20343;-81
2024/04/20 06:05:01;;;;;;;32.65;30.35;;;;;;;-143.39;100.00;64013.03;5376781;26;20036;-81
2024/04/20 06:07:31;;;;;;;30.58;28.38;;;;;;;-143.39;100.00;64013.03;5377310;26;20440;-81
2024/04/20 06:10:00;;;;;;;31.35;29.25;;;;;;;-143.39;100.00;64013.03;5381088;26;20015;-81
2024/04/20 06:12:29;;;;;;;35.20;32.80;;;;;;;-143.39;100.00;64013.03;5380848;26;20015;-81
2024/04/20 06:14:58;;;;;;;32.67;30.17;;;;;;;-143.39;100.00;64013.03;5345248;26;20005;-81
2024/04/20 06:17:29;;;;;;;36.05;33.30;;;;;;;-143.39;100.00;64013.03;5347049;26;20015;-81
2024/04/20 06:19:58;;;;;;;35.08;32.20;;;;;;;-143.39;100.00;64013.03;5348445;26;20088;-81
2024/04/20 06:22:34;;;;;;;33.20;30.80;;;;;;;-143.39;100.00;64013.03;5347628;26;20000;-81
2024/04/20 06:25:04;;;;;;;33.47;31.15;;;;;;;-143.39;100.00;64013.03;5347572;26;20015;-81
2024/04/20 06:27:37;;;;;;;33.30;30.90;;;;;;;-143.39;100.00;64013.03;5376164;26;20028;-81
2024/04/20 06:30:14;;;;;;;38.05;35.42;;;;;;;-143.39;100.00;64013.03;5382391;26;20006;-81
2024/04/20 06:32:50;;;;;;;31.77;29.48;;;;;;;-143.39;100.00;64013.03;5383148;26;20077;-81
2024/04/20 06:35:21;;;;;;;34.28;31.88;;;;;;;-143.39;100.00;64013.03;5382332;26;20012;-80
2024/04/20 06:37:51;;;;;;;35.75;33.22;;;;;;;-143.39;100.00;64013.03;5380811;26;20976;-81
2024/04/20 06:40:21;;;;;;;36.15;33.75;;;;;;;-143.39;100.00;64013.03;5379936;26;20000;-81
2024/04/20 06:42:47;;;;;;;35.20;32.83;;;;;;;-143.39;100.00;64013.03;5380077;26;20783;-81
2024/04/20 06:45:19;;;;;;;39.83;37.25;;;;;;;-143.39;100.00;64013.03;5383790;26;20000;-81
2024/04/20 06:47:51;;;;;;;38.33;35.72;;;;;;;-143.39;100.00;64013.03;5382364;26;20011;-81
2024/04/20 06:50:34;;;;;;;41.60;38.95;;;;;;;-143.39;100.00;64013.03;5383469;26;20513;-81
2024/04/20 06:53:03;;;;;;;38.97;36.38;;;;;;;-143.39;100.00;64013.03;5382521;26;20004;-81
2024/04/20 06:55:32;;;;;;;37.58;35.08;;;;;;;-143.39;100.00;64013.03;5381255;26;20024;-81
2024/04/20 06:58:00;;;;;;;35.65;33.25;;;;;;;-143.39;100.00;64013.03;5377533;26;20020;-81
2024/04/20 07:00:29;;;;;;;36.95;34.38;;;;;;;-143.39;100.00;64013.03;5382572;26;20004;-81
2024/04/20 07:03:07;;;;;;;34.35;32.17;;;;;;;-143.39;100.00;64013.03;5382752;26;20004;-81
2024/04/20 07:05:36;;;;;;;33.20;30.70;;;;;;;-143.39;100.00;64013.03;5381991;26;20004;-81
2024/04/20 07:08:05;;;;;;;33.00;30.52;;;;;;;-143.39;100.00;64013.03;5380473;26;20076;-81
2024/04/20 07:10:34;;;;;;;33.55;31.15;;;;;;;-143.39;100.00;64013.03;5380369;26;20000;-81
2024/04/20 07:13:03;;;;;;;35.88;33.47;;;;;;;-143.39;100.00;64013.03;5379352;26;20004;-81
2024/04/20 07:15:32;;;;;;;35.08;32.25;;;;;;;-143.39;100.00;64013.03;5379978;26;20089;-82
2024/04/20 07:18:00;;;;;;;36.60;34.10;;;;;;;-143.39;100.00;64013.03;5379381;26;20004;-81
2024/04/20 07:20:33;;;;;;;32.40;30.20;;;;;;;-143.39;100.00;64013.03;5379268;26;20004;-81
2024/04/20 07:23:08;;;;;;;31.33;29.23;;;;;;;-143.39;100.00;64013.03;5377750;26;20008;-82
2024/04/20 07:25:37;;;;;;;29.35;27.35;;;;;;;-143.39;100.00;64013.03;5379883;26;20036;-81
2024/04/20 07:28:06;;;;;;;33.90;31.60;;;;;;;-143.39;100.00;64013.03;5378776;26;20005;-81
2024/04/20 07:30:35;;;;;;;37.00;33.70;;;;;;;-143.39;100.00;64013.03;5380874;26;20000;-81
2024/04/20 07:33:04;;;;;;;42.00;38.00;;;;;;;-143.39;100.00;64013.03;5382023;26;20077;-82
2024/04/20 07:35:37;;;;;;;50.13;44.92;;;;;;;-143.39;100.00;64013.03;5380490;26;20078;-81
2024/04/20 07:38:06;;;;;;;51.42;46.03;;;;;;;-143.39;100.00;64013.03;5378987;26;20020;-81
2024/04/20 07:40:35;;;;;;;52.08;46.58;;;;;;;-143.39;100.00;64013.03;5379339;26;20014;-82
2024/04/20 07:43:04;;;;;;;51.95;46.55;;;;;;;-143.39;100.00;64013.03;5378780;26;20073;-81
2024/04/20 07:45:34;;;;;;;65.38;57.63;;;;;;;-143.39;100.00;64013.03;5380079;26;20004;-81
2024/04/20 07:48:04;;;;;;;58.28;47.55;;;;;;;-143.39;100.00;64013.03;5379553;26;20016;-81
2024/04/20 07:50:36;;;;;;;54.80;46.28;;;;;;;-143.39;100.00;64013.03;5379746;26;20711;-82
2024/04/20 07:53:07;;;;;;;58.28;51.90;;;;;;;-143.39;100.00;64013.03;5363748;26;20167;-81
2024/04/20 07:55:36;;;;;;;57.17;51.88;;;;;;;-143.39;100.00;64013.03;5378119;26;20008;-82
2024/04/20 07:58:04;;;;;;;55.05;50.05;;;;;;;-143.39;100.00;64013.03;5370652;26;20000;-81
2024/04/20 08:00:33;;;;;;;57.78;52.47;;;;;;;-143.39;100.00;64013.03;5378966;26;20073;-81
2024/04/20 08:03:02;;;;;;;60.70;55.97;;;;;;;-143.39;100.00;64013.03;5378863;26;20000;-82
2024/04/20 08:05:31;;;;;;;68.90;62.42;;;;;;;-143.39;100.00;64013.03;5379337;26;20008;-81
2024/04/20 08:08:03;;;;;;;66.45;60.25;;;;;;;-143.39;100.00;64013.03;5378378;26;20081;-81
2024/04/20 08:10:31;;;;;;;76.50;68.27;;;;;;;-143.39;100.00;64013.03;5378557;26;20000;-82
2024/04/20 08:13:00;;;;;;;67.25;60.95;;;;;;;-143.39;100.00;64013.03;5380125;26;20000;-80
2024/04/20 08:15:34;;;;;;;68.03;61.33;;;;;;;-143.39;100.00;64013.03;5380887;26;20015;-81
2024/04/20 08:18:02;;;;;;;81.10;72.95;;;;;;;-143.39;100.00;64013.03;5381138;26;20041;-82
2024/04/20 08:20:39;;;;;;;67.03;60.72;;;;;;;-143.39;100.00;64013.03;5381285;26;20004;-81
2024/04/20 08:23:12;;;;;;;69.78;63.28;;;;;;;-143.39;100.00;64013.03;5381466;26;20023;-82
2024/04/20 08:25:44;;;;;;;79.20;71.13;;;;;;;-143.39;100.00;64013.03;5381100;26;20004;-81
2024/04/20 08:28:36;;;;;;;67.28;61.05;;;;;;;-143.39;100.00;64013.03;5381726;26;20081;-81
2024/04/20 08:31:05;;;;;;;84.45;75.68;;;;;;;-143.39;100.00;64013.03;5380384;26;20085;-82
2024/04/20 08:33:34;;;;;;;90.63;81.82;;;;;;;-143.39;100.00;64013.03;5379738;26;20544;-81
2024/04/20 08:36:03;;;;;;;91.18;82.40;;;;;;;-143.39;100.00;64013.03;5378455;26;20450;-82
2024/04/20 08:38:46;;;;;;;66.72;61.03;;;;;;;-143.39;100.00;64013.03;5379130;26;20000;-82
2024/04/20 08:41:20;;;;;;;65.45;59.58;;;;;;;-143.39;100.00;64013.03;5380396;26;20000;-82
2024/04/20 08:44:12;;;;;;;88.18;79.18;;;;;;;-143.39;100.00;64013.03;5349973;26;19996;-82
2024/04/20 08:46:42;;;;;;;68.05;61.85;;;;;;;-143.39;100.00;64013.03;5378589;26;20052;-82
2024/04/20 08:49:11;;;;;;;68.57;62.35;;;;;;;-143.39;100.00;64013.03;5378314;26;20000;-82
2024/04/20 08:51:43;;;;;;;75.15;67.95;;;;;;;-143.39;100.00;64013.03;5378542;26;20458;-81
2024/04/20 08:54:19;;;;;;;67.13;61.13;;;;;;;-143.39;100.00;64013.03;5378845;26;20633;-82
2024/04/20 08:56:49;;;;;;;67.20;61.20;;;;;;;-143.39;100.00;64013.03;5379196;26;20440;-81
2024/04/20 08:59:18;;;;;;;66.03;60.05;;;;;;;-143.39;100.00;64013.03;5371073;26;20016;-82
2024/04/20 09:01:49;;;;;;;67.97;61.88;;;;;;;-143.39;100.00;64013.03;5378969;26;20080;-82
2024/04/20 09:04:18;;;;;;;62.75;57.35;;;;;;;-143.39;100.00;64013.03;5378370;26;20019;-82
2024/04/20 09:06:53;;;;;;;68.60;62.10;;;;;;;-143.39;100.00;64013.03;5378168;26;20019;-82
2024/04/20 09:09:25;;;;;;;71.00;64.30;;;;;;;-143.39;100.00;64013.03;5378808;26;20011;-82
2024/04/20 09:11:54;;;;;;;75.85;68.65;;;;;;;-143.39;100.00;64013.03;5379189;26;20471;-81
2024/04/20 09:14:25;;;;;;;78.93;71.15;;;;;;;-143.39;100.00;64013.03;5379184;26;20077;-81
2024/04/20 09:16:54;;;;;;;74.32;67.22;;;;;;;-143.39;100.00;64013.03;5379111;26;20046;-81
2024/04/20 09:19:23;;;;;;;65.93;60.33;;;;;;;-143.39;100.00;64013.03;5378602;26;20742;-81
2024/04/20 09:21:53;;;;;;;74.90;67.75;;;;;;;-143.39;100.00;64013.03;5379356;26;20081;-81
2024/04/20 09:24:25;;;;;;;81.55;73.55;;;;;;;-143.39;100.00;64013.03;5378692;26;20019;-81
2024/04/20 09:26:55;;;;;;;79.82;71.93;;;;;;;-143.39;100.00;64013.03;5378047;26;20012;-81
2024/04/20 09:29:25;;;;;;;81.75;73.65;;;;;;;-143.39;100.00;64013.03;5378674;26;20008;-81
2024/04/20 09:32:10;;;;;;;93.88;83.88;;;;;;;-143.39;100.00;64013.03;5379243;26;20351;-81
2024/04/20 09:34:38;;;;;;;93.10;83.30;;;;;;;-143.39;100.00;64013.03;5379423;26;20000;-82
2024/04/20 09:37:08;;;;;;;95.22;85.22;;;;;;;-143.39;100.00;64013.03;5378971;26;20015;-80
2024/04/20 09:39:39;;;;;;;91.82;81.95;;;;;;;-143.39;100.00;64013.03;5379544;26;20000;-81
2024/04/20 09:42:09;;;;;;;94.68;84.47;;;;;;;-143.39;100.00;64013.03;5379616;26;19996;-81
2024/04/20 09:44:42;;;;;;;93.57;83.75;;;;;;;-143.39;100.00;64013.03;5382317;26;20227;-81
2024/04/20 09:47:11;;;;;;;91.65;81.95;;;;;;;-143.39;100.00;64013.03;5381954;26;20010;-82
2024/04/20 09:49:41;;;;;;;93.55;83.65;;;;;;;-143.39;100.00;64013.03;5382039;26;20000;-81
2024/04/20 09:52:23;;;;;;;91.70;82.43;;;;;;;-143.39;100.00;64013.03;5382330;26;20052;-81
2024/04/20 09:55:04;;;;;;;92.67;83.20;;;;;;;-143.39;100.00;64013.03;5382444;26;20004;-81
2024/04/20 09:57:37;;;;;;;91.43;81.88;;;;;;;-143.39;100.00;64013.03;5381104;26;20015;-82
2024/04/20 10:00:14;;;;;;;92.03;82.20;;;;;;;-143.39;100.00;64013.03;5381713;26;20000;-81
2024/04/20 10:02:45;;;;;;;95.13;84.97;;;;;;;-143.39;100.00;64013.03;5382565;26;20085;-81
2024/04/20 10:05:15;;;;;;;94.88;84.78;;;;;;;-143.39;100.00;64013.03;5382292;26;20361;-82
2024/04/20 10:07:51;;;;;;;34.00;31.80;;;;;;;-143.39;100.00;64013.03;5382500;26;20558;-78
2024/04/20 10:10:25;;;;;;;31.88;29.83;;;;;;;-143.39;100.00;64013.03;5381485;26;20000;-78
2024/04/20 10:12:59;;;;;;;31.85;29.85;;;;;;;-143.39;100.00;64013.03;5381320;26;20015;-81
2024/04/20 10:15:29;;;;;;;34.45;32.25;;;;;;;-143.39;100.00;64013.03;5382042;26;20015;-81
2024/04/20 10:17:58;;;;;;;34.72;32.53;;;;;;;-143.39;100.00;64013.03;5381846;26;20082;-78
2024/04/20 10:20:34;;;;;;;34.55;32.45;;;;;;;-143.39;100.00;64013.03;5380562;26;20514;-78
2024/04/20 10:23:03;;;;;;;36.63;34.22;;;;;;;-143.39;100.00;64013.03;5380942;26;20004;-78
2024/04/20 10:25:35;;;;;;;34.20;31.90;;;;;;;-143.39;100.00;64013.03;5380917;26;20091;-78
2024/04/20 10:28:04;;;;;;;36.50;34.10;;;;;;;-143.39;100.00;64013.03;5380886;26;20062;-78
2024/04/20 10:30:33;;;;;;;34.38;32.08;;;;;;;-143.39;100.00;64013.03;5380023;26;20772;-78
2024/04/20 10:33:09;;;;;;;34.30;32.10;;;;;;;-143.39;100.00;64013.03;5380626;26;20023;-78
2024/04/20 10:35:38;;;;;;;35.95;33.65;;;;;;;-143.39;100.00;64013.03;5380197;26;19996;-78
2024/04/20 10:38:09;;;;;;;35.92;33.45;;;;;;;-143.39;100.00;64013.03;5380180;26;20015;-78
2024/04/20 10:40:44;;;;;;;36.30;33.88;;;;;;;-143.39;100.00;64013.03;5381011;26;20000;-78
2024/04/20 10:43:11;;;;;;;36.30;33.90;;;;;;;-143.39;100.00;64013.03;5381641;26;20081;-82
2024/04/20 10:45:40;;;;;;;34.58;32.28;;;;;;;-143.39;100.00;64013.03;5384259;26;20745;-81
2024/04/20 10:48:12;;;;;;;36.70;34.10;;;;;;;-143.39;100.00;64013.03;5381608;26;20015;-78
2024/04/20 10:50:43;;;;;;;37.15;34.60;;;;;;;-143.39;100.00;64013.03;5381641;26;20724;-81
2024/04/20 10:53:14;;;;;;;35.83;33.33;;;;;;;-143.39;100.00;64013.03;5382420;26;20000;-82
2024/04/20 10:56:00;;;;;;;36.03;33.42;;;;;;;-143.39;100.00;64013.03;5380807;26;20004;-81
2024/04/20 10:58:37;;;;;;;38.58;35.85;;;;;;;-143.39;100.00;64013.03;5377423;26;20077;-82
2024/04/20 11:01:06;;;;;;;39.63;36.92;;;;;;;-143.39;100.00;64013.03;5381851;26;20820;-81
2024/04/20 11:03:35;;;;;;;40.03;37.22;;;;;;;-143.39;100.00;64013.03;5381619;26;20001;-82
2024/04/20 11:06:04;;;;;;;38.50;35.60;;;;;;;-143.39;100.00;64013.03;5382082;26;20085;-81
2024/04/20 11:08:34;;;;;;;38.90;36.20;;;;;;;-143.39;100.00;64013.03;5383348;26;20103;-81
2024/04/20 11:11:17;;;;;;;37.67;35.08;;;;;;;-143.39;100.00;64013.03;5382579;26;20004;-81